createdAt,value
2019-03-10T00:00:32.394Z,1010.22
2019-03-10T00:01:32.390Z,1010.24
2019-03-10T00:02:32.389Z,1010.09
2019-03-10T00:03:32.355Z,1010.11
2019-03-10T00:04:32.349Z,1010.13
2019-03-10T00:05:32.336Z,1010.07
2019-03-10T00:06:32.338Z,1010.03
2019-03-10T00:07:32.335Z,1010.06
2019-03-10T00:08:32.305Z,1010.06
2019-03-10T00:09:32.316Z,1010.04
2019-03-10T00:10:32.284Z,1010.06
2019-03-10T00:11:32.272Z,1010.05
2019-03-10T00:12:32.291Z,1010.03
2019-03-10T00:13:32.251Z,1009.99
2019-03-10T00:14:32.240Z,1009.97
2019-03-10T00:15:32.230Z,1009.92
2019-03-10T00:16:32.218Z,1009.91
2019-03-10T00:17:32.232Z,1009.94
2019-03-10T00:18:32.198Z,1009.93
2019-03-10T00:19:32.198Z,1009.94
2019-03-10T00:20:32.175Z,1009.88
2019-03-10T00:21:32.164Z,1009.85
2019-03-10T00:22:32.188Z,1009.83
2019-03-10T00:23:32.142Z,1009.77
2019-03-10T00:24:32.133Z,1009.81
2019-03-10T00:25:32.159Z,1009.76
2019-03-10T00:26:32.110Z,1009.76
2019-03-10T00:27:32.100Z,1009.66
2019-03-10T00:28:32.116Z,1009.63
2019-03-10T00:29:32.078Z,1009.63
2019-03-10T00:30:32.111Z,1009.57
2019-03-10T00:31:32.064Z,1009.66
2019-03-10T00:32:32.046Z,1009.61
2019-03-10T00:33:32.054Z,1009.57
2019-03-10T00:34:32.025Z,1009.56
2019-03-10T00:35:32.017Z,1009.64
2019-03-10T00:36:32.009Z,1009.59
2019-03-10T00:37:32.013Z,1009.62
2019-03-10T00:38:32.014Z,1009.66
2019-03-10T00:39:31.970Z,1009.66
2019-03-10T00:40:39.002Z,1009.56
2019-03-10T00:41:31.949Z,1009.58
2019-03-10T00:42:32.158Z,1009.54
2019-03-10T00:43:31.947Z,1009.50
2019-03-10T00:44:31.919Z,1009.54
2019-03-10T00:45:31.917Z,1009.50
2019-03-10T00:46:31.895Z,1009.53
2019-03-10T00:47:31.907Z,1009.51
2019-03-10T00:48:31.890Z,1009.52
2019-03-10T00:49:31.868Z,1009.47
2019-03-10T00:50:31.858Z,1009.46
2019-03-10T00:51:34.163Z,1009.36
2019-03-10T00:52:31.829Z,1009.36
2019-03-10T00:53:31.841Z,1009.32
2019-03-10T00:54:31.807Z,1009.34
2019-03-10T00:55:31.796Z,1009.37
2019-03-10T00:56:31.796Z,1009.37
2019-03-10T00:57:31.839Z,1009.39
2019-03-10T00:58:31.786Z,1009.31
2019-03-10T00:59:31.754Z,1009.30
2019-03-10T01:00:31.743Z,1009.31
2019-03-10T01:01:31.731Z,1009.29
2019-03-10T01:02:31.727Z,1009.31
2019-03-10T01:03:31.738Z,1009.32
2019-03-10T01:04:31.704Z,1009.36
2019-03-10T01:05:31.703Z,1009.32
2019-03-10T01:06:31.685Z,1009.33
2019-03-10T01:07:31.667Z,1009.32
2019-03-10T01:08:31.689Z,1009.34
2019-03-10T01:09:31.710Z,1009.39
2019-03-10T01:10:31.650Z,1009.36
2019-03-10T01:11:31.626Z,1009.33
2019-03-10T01:12:31.615Z,1009.34
2019-03-10T01:13:31.628Z,1009.32
2019-03-10T01:14:31.596Z,1009.29
2019-03-10T01:15:31.591Z,1009.30
2019-03-10T01:16:31.575Z,1009.28
2019-03-10T01:17:31.560Z,1009.29
2019-03-10T01:18:31.580Z,1009.22
2019-03-10T01:19:31.540Z,1009.21
2019-03-10T01:20:31.529Z,1009.17
2019-03-10T01:21:31.515Z,1009.13
2019-03-10T01:22:31.507Z,1009.14
2019-03-10T01:23:31.522Z,1009.15
2019-03-10T01:24:31.489Z,1009.04
2019-03-10T01:25:31.476Z,1009.06
2019-03-10T01:26:31.464Z,1009.05
2019-03-10T01:27:31.450Z,1008.97
2019-03-10T01:28:31.465Z,1008.97
2019-03-10T01:29:31.430Z,1008.98
2019-03-10T01:30:31.420Z,1009.00
2019-03-10T01:31:31.443Z,1008.92
2019-03-10T01:32:31.408Z,1008.80
2019-03-10T01:33:31.406Z,1008.87
2019-03-10T01:34:31.377Z,1008.84
2019-03-10T01:35:31.369Z,1008.82
2019-03-10T01:36:31.357Z,1008.78
2019-03-10T01:37:31.413Z,1008.67
2019-03-10T01:38:31.352Z,1008.61
2019-03-10T01:39:31.319Z,1008.59
2019-03-10T01:40:31.312Z,1008.55
2019-03-10T01:41:31.308Z,1008.47
2019-03-10T01:42:31.287Z,1008.40
2019-03-10T01:43:31.298Z,1008.44
2019-03-10T01:44:31.267Z,1008.43
2019-03-10T01:45:31.272Z,1008.38
2019-03-10T01:46:31.244Z,1008.21
2019-03-10T01:47:31.239Z,1008.15
2019-03-10T01:48:31.246Z,1008.12
2019-03-10T01:49:31.216Z,1008.12
2019-03-10T01:50:31.206Z,1008.08
2019-03-10T01:51:31.201Z,1008.08
2019-03-10T01:52:31.188Z,1008.06
2019-03-10T01:53:31.195Z,1007.98
2019-03-10T01:54:31.160Z,1007.97
2019-03-10T01:55:31.149Z,1008.02
2019-03-10T01:56:31.148Z,1008.01
2019-03-10T01:57:31.127Z,1007.96
2019-03-10T01:58:31.141Z,1007.92
2019-03-10T01:59:31.108Z,1007.84
2019-03-10T02:00:31.110Z,1007.80
2019-03-10T02:01:31.152Z,1007.85
2019-03-10T02:02:31.070Z,1007.85
2019-03-10T02:03:31.086Z,1007.80
2019-03-10T02:04:31.144Z,1007.69
2019-03-10T02:05:31.038Z,1007.59
2019-03-10T02:06:31.037Z,1007.62
2019-03-10T02:07:31.020Z,1007.55
2019-03-10T02:08:31.005Z,1007.50
2019-03-10T02:09:31.019Z,1007.47
2019-03-10T02:10:31.019Z,1007.45
2019-03-10T02:11:30.977Z,1007.39
2019-03-10T02:12:30.967Z,1007.38
2019-03-10T02:13:30.962Z,1007.32
2019-03-10T02:14:30.963Z,1007.25
2019-03-10T02:15:30.936Z,1007.16
2019-03-10T02:16:30.918Z,1007.15
2019-03-10T02:17:30.971Z,1007.10
2019-03-10T02:18:30.898Z,1007.08
2019-03-10T02:19:30.912Z,1007.03
2019-03-10T02:20:30.888Z,1007.09
2019-03-10T02:21:30.863Z,1007.06
2019-03-10T02:22:30.853Z,1007.05
2019-03-10T02:23:30.847Z,1007.06
2019-03-10T02:24:30.864Z,1007.08
2019-03-10T02:25:30.821Z,1007.01
2019-03-10T02:26:30.809Z,1007.01
2019-03-10T02:27:30.803Z,1006.97
2019-03-10T02:28:30.788Z,1006.93
2019-03-10T02:29:30.799Z,1006.88
2019-03-10T02:30:30.852Z,1006.90
2019-03-10T02:31:30.756Z,1006.86
2019-03-10T02:32:30.759Z,1006.86
2019-03-10T02:33:30.741Z,1006.87
2019-03-10T02:34:30.744Z,1006.79
2019-03-10T02:35:30.737Z,1006.80
2019-03-10T02:36:30.710Z,1006.77
2019-03-10T02:37:30.706Z,1006.70
2019-03-10T02:38:30.692Z,1006.72
2019-03-10T02:39:30.692Z,1006.65
2019-03-10T02:40:30.658Z,1006.60
2019-03-10T02:41:30.648Z,1006.60
2019-03-10T02:42:30.643Z,1006.51
2019-03-10T02:43:30.638Z,1006.46
2019-03-10T02:44:30.654Z,1006.42
2019-03-10T02:45:30.717Z,1006.41
2019-03-10T02:46:30.591Z,1006.33
2019-03-10T02:47:30.582Z,1006.29
2019-03-10T02:48:30.574Z,1006.20
2019-03-10T02:49:30.588Z,1006.17
2019-03-10T02:50:30.557Z,1006.15
2019-03-10T02:51:30.539Z,1006.11
2019-03-10T02:52:30.533Z,1006.08
2019-03-10T02:53:30.586Z,1006.10
2019-03-10T02:54:30.545Z,1006.04
2019-03-10T02:55:30.498Z,1006.01
2019-03-10T02:56:30.489Z,1006.02
2019-03-10T02:57:30.476Z,1005.94
2019-03-10T02:58:30.462Z,1005.93
2019-03-10T02:59:30.473Z,1005.91
2019-03-10T03:00:30.444Z,1005.91
2019-03-10T03:01:30.431Z,1005.97
2019-03-10T03:02:30.422Z,1005.90
2019-03-10T03:03:30.412Z,1005.92
2019-03-10T03:04:30.416Z,1005.87
2019-03-10T03:05:30.387Z,1005.88
2019-03-10T03:06:30.377Z,1005.78
2019-03-10T03:07:30.364Z,1005.69
2019-03-10T03:08:30.367Z,1005.67
2019-03-10T03:09:30.368Z,1005.66
2019-03-10T03:10:30.332Z,1005.67
2019-03-10T03:11:30.322Z,1005.64
2019-03-10T03:12:30.311Z,1005.59
2019-03-10T03:13:30.315Z,1005.61
2019-03-10T03:14:30.308Z,1005.56
2019-03-10T03:15:30.289Z,1005.53
2019-03-10T03:16:30.286Z,1005.51
2019-03-10T03:17:30.266Z,1005.43
2019-03-10T03:18:30.247Z,1005.46
2019-03-10T03:19:30.257Z,1005.44
2019-03-10T03:20:30.225Z,1005.44
2019-03-10T03:21:42.436Z,1005.43
2019-03-10T03:22:31.231Z,1005.48
2019-03-10T03:23:30.201Z,1005.42
2019-03-10T03:24:30.202Z,1005.40
2019-03-10T03:25:30.180Z,1005.43
2019-03-10T03:26:30.164Z,1005.35
2019-03-10T03:27:30.148Z,1005.33
2019-03-10T03:28:30.138Z,1005.32
2019-03-10T03:29:30.148Z,1005.30
2019-03-10T03:30:30.127Z,1005.24
2019-03-10T03:31:30.115Z,1005.26
2019-03-10T03:32:30.119Z,1005.28
2019-03-10T03:33:30.111Z,1005.28
2019-03-10T03:34:30.095Z,1005.18
2019-03-10T03:35:30.063Z,1005.17
2019-03-10T03:36:30.056Z,1005.10
2019-03-10T03:37:30.047Z,1005.05
2019-03-10T03:38:30.031Z,1005.04
2019-03-10T03:39:30.058Z,1004.98
2019-03-10T03:40:30.017Z,1004.96
2019-03-10T03:41:29.996Z,1004.99
2019-03-10T03:42:29.995Z,1004.96
2019-03-10T03:43:30.005Z,1004.92
2019-03-10T03:44:30.000Z,1004.95
2019-03-10T03:45:29.970Z,1004.87
2019-03-10T03:46:29.965Z,1004.84
2019-03-10T03:47:29.933Z,1004.80
2019-03-10T03:48:29.934Z,1004.75
2019-03-10T03:49:29.918Z,1004.71
2019-03-10T03:50:29.938Z,1004.66
2019-03-10T03:51:29.890Z,1004.66
2019-03-10T03:52:29.910Z,1004.58
2019-03-10T03:53:29.870Z,1004.57
2019-03-10T03:54:29.864Z,1004.58
2019-03-10T03:55:29.879Z,1004.60
2019-03-10T03:56:29.840Z,1004.58
2019-03-10T03:57:29.826Z,1004.52
2019-03-10T03:58:29.821Z,1004.52
2019-03-10T03:59:29.804Z,1004.51
2019-03-10T04:00:29.814Z,1004.50
2019-03-10T04:01:29.793Z,1004.43
2019-03-10T04:02:29.790Z,1004.44
2019-03-10T04:03:29.775Z,1004.33
2019-03-10T04:04:29.750Z,1004.36
2019-03-10T04:05:29.760Z,1004.30
2019-03-10T04:06:29.735Z,1004.24
2019-03-10T04:07:29.722Z,1004.22
2019-03-10T04:08:29.707Z,1004.18
2019-03-10T04:09:29.702Z,1004.15
2019-03-10T04:10:29.709Z,1004.11
2019-03-10T04:11:29.678Z,1004.10
2019-03-10T04:12:29.734Z,1004.10
2019-03-10T04:13:29.672Z,1004.06
2019-03-10T04:14:29.643Z,1004.09
2019-03-10T04:15:29.650Z,1004.07
2019-03-10T04:16:29.621Z,1003.99
2019-03-10T04:17:29.615Z,1003.96
2019-03-10T04:18:29.600Z,1003.93
2019-03-10T04:19:29.601Z,1003.94
2019-03-10T04:20:29.609Z,1003.88
2019-03-10T04:21:29.571Z,1003.82
2019-03-10T04:22:29.558Z,1003.84
2019-03-10T04:23:29.548Z,1003.85
2019-03-10T04:24:29.536Z,1003.86
2019-03-10T04:25:29.567Z,1003.84
2019-03-10T04:26:29.522Z,1003.77
2019-03-10T04:27:29.515Z,1003.83
2019-03-10T04:28:29.494Z,1003.81
2019-03-10T04:29:29.486Z,1003.77
2019-03-10T04:30:29.491Z,1003.74
2019-03-10T04:31:29.469Z,1003.72
2019-03-10T04:32:29.485Z,1003.68
2019-03-10T04:33:29.444Z,1003.61
2019-03-10T04:34:29.444Z,1003.64
2019-03-10T04:35:29.457Z,1003.61
2019-03-10T04:36:29.410Z,1003.58
2019-03-10T04:37:29.402Z,1003.55
2019-03-10T04:38:29.391Z,1003.52
2019-03-10T04:39:29.383Z,1003.44
2019-03-10T04:40:29.388Z,1003.40
2019-03-10T04:41:29.356Z,1003.34
2019-03-10T04:42:29.347Z,1003.28
2019-03-10T04:43:29.335Z,1003.25
2019-03-10T04:44:29.325Z,1003.25
2019-03-10T04:45:29.344Z,1003.17
2019-03-10T04:46:29.304Z,1003.13
2019-03-10T04:47:29.293Z,1003.18
2019-03-10T04:48:29.285Z,1003.13
2019-03-10T04:49:29.282Z,1003.09
2019-03-10T04:50:29.287Z,1003.04
2019-03-10T04:51:29.252Z,1003.03
2019-03-10T04:52:29.246Z,1003.00
2019-03-10T04:53:29.232Z,1002.98
2019-03-10T04:54:29.223Z,1002.96
2019-03-10T04:55:29.231Z,1002.91
2019-03-10T04:56:29.201Z,1002.86
2019-03-10T04:57:29.191Z,1002.84
2019-03-10T04:58:29.184Z,1002.75
2019-03-10T04:59:29.172Z,1002.74
2019-03-10T05:00:29.177Z,1002.69
2019-03-10T05:01:29.151Z,1002.61
2019-03-10T05:02:29.139Z,1002.59
2019-03-10T05:03:29.125Z,1002.57
2019-03-10T05:04:31.451Z,1002.53
2019-03-10T05:05:29.131Z,1002.43
2019-03-10T05:06:29.096Z,1002.39
2019-03-10T05:07:29.086Z,1002.38
2019-03-10T05:08:29.081Z,1002.38
2019-03-10T05:09:29.065Z,1002.34
2019-03-10T05:10:29.074Z,1002.28
2019-03-10T05:11:29.048Z,1002.28
2019-03-10T05:12:29.050Z,1002.29
2019-03-10T05:13:29.024Z,1002.22
2019-03-10T05:14:29.018Z,1002.17
2019-03-10T05:15:29.022Z,1002.08
2019-03-10T05:16:28.991Z,1002.03
2019-03-10T05:17:28.982Z,1002.01
2019-03-10T05:18:28.972Z,1001.91
2019-03-10T05:19:28.963Z,1001.86
2019-03-10T05:20:28.969Z,1001.84
2019-03-10T05:21:28.940Z,1001.79
2019-03-10T05:22:28.930Z,1001.72
2019-03-10T05:23:28.919Z,1001.65
2019-03-10T05:24:28.908Z,1001.61
2019-03-10T05:25:28.924Z,1001.58
2019-03-10T05:26:28.888Z,1001.55
2019-03-10T05:27:28.878Z,1001.49
2019-03-10T05:28:28.867Z,1001.50
2019-03-10T05:29:28.858Z,1001.47
2019-03-10T05:30:28.872Z,1001.37
2019-03-10T05:31:28.843Z,1001.27
2019-03-10T05:32:28.828Z,1001.18
2019-03-10T05:33:28.814Z,1001.16
2019-03-10T05:34:28.826Z,1001.05
2019-03-10T05:35:28.794Z,1000.99
2019-03-10T05:36:28.803Z,1000.90
2019-03-10T05:37:28.779Z,1000.82
2019-03-10T05:38:28.778Z,1000.75
2019-03-10T05:39:28.759Z,1000.80
2019-03-10T05:40:28.743Z,1000.84
2019-03-10T05:41:28.755Z,1000.80
2019-03-10T05:42:28.722Z,1000.75
2019-03-10T05:43:28.713Z,1000.87
2019-03-10T05:44:28.730Z,1000.81
2019-03-10T05:45:28.691Z,1000.73
2019-03-10T05:46:28.709Z,1000.63
2019-03-10T05:47:28.671Z,1000.67
2019-03-10T05:48:28.659Z,1000.61
2019-03-10T05:49:28.649Z,1000.59
2019-03-10T05:50:28.655Z,1000.57
2019-03-10T05:51:28.650Z,1000.50
2019-03-10T05:52:28.618Z,1000.44
2019-03-10T05:53:28.614Z,1000.41
2019-03-10T05:54:28.598Z,1000.40
2019-03-10T05:55:28.588Z,1000.30
2019-03-10T05:56:28.597Z,1000.27
2019-03-10T05:57:28.576Z,1000.25
2019-03-10T05:58:28.555Z,1000.21
2019-03-10T05:59:28.545Z,1000.21
2019-03-10T06:00:28.536Z,1000.21
2019-03-10T06:01:28.545Z,1000.24
2019-03-10T06:02:28.514Z,1000.12
2019-03-10T06:03:28.509Z,1000.19
2019-03-10T06:04:28.513Z,1000.25
2019-03-10T06:05:28.483Z,1000.24
2019-03-10T06:06:28.496Z,1000.17
2019-03-10T06:07:28.475Z,999.96
2019-03-10T06:08:28.453Z,999.92
2019-03-10T06:09:28.441Z,1000.17
2019-03-10T06:10:28.453Z,1000.23
2019-03-10T06:11:28.444Z,1000.05
2019-03-10T06:12:28.411Z,999.83
2019-03-10T06:13:28.400Z,999.64
2019-03-10T06:14:28.393Z,999.59
2019-03-10T06:15:28.402Z,999.61
2019-03-10T06:16:28.390Z,999.69
2019-03-10T06:17:28.368Z,999.89
2019-03-10T06:18:28.349Z,1000.06
2019-03-10T06:19:28.342Z,1000.13
2019-03-10T06:20:28.340Z,999.99
2019-03-10T06:21:28.346Z,999.86
2019-03-10T06:22:28.309Z,999.65
2019-03-10T06:23:28.298Z,999.60
2019-03-10T06:24:28.290Z,999.56
2019-03-10T06:25:28.275Z,999.46
2019-03-10T06:26:28.288Z,999.45
2019-03-10T06:27:28.257Z,999.56
2019-03-10T06:28:28.244Z,999.51
2019-03-10T06:29:28.230Z,999.47
2019-03-10T06:30:28.318Z,999.36
2019-03-10T06:31:28.234Z,999.32
2019-03-10T06:32:28.210Z,999.35
2019-03-10T06:33:28.191Z,999.38
2019-03-10T06:34:28.195Z,999.38
2019-03-10T06:35:28.172Z,999.36
2019-03-10T06:36:28.177Z,999.44
2019-03-10T06:37:28.149Z,999.30
2019-03-10T06:38:28.145Z,999.21
2019-03-10T06:39:28.138Z,999.01
2019-03-10T06:40:32.012Z,998.90
2019-03-10T06:41:28.132Z,999.07
2019-03-10T06:42:28.097Z,998.82
2019-03-10T06:43:28.091Z,998.86
2019-03-10T06:44:28.076Z,998.99
2019-03-10T06:45:28.067Z,998.85
2019-03-10T06:46:28.083Z,998.86
2019-03-10T06:47:28.044Z,998.91
2019-03-10T06:48:28.034Z,999.03
2019-03-10T06:49:28.025Z,998.90
2019-03-10T06:50:28.015Z,998.59
2019-03-10T06:51:28.026Z,998.27
2019-03-10T06:52:28.000Z,998.38
2019-03-10T06:53:27.984Z,998.71
2019-03-10T06:54:27.970Z,998.58
2019-03-10T06:55:27.962Z,998.41
2019-03-10T06:56:28.024Z,998.16
2019-03-10T06:57:27.939Z,998.28
2019-03-10T06:58:27.931Z,998.32
2019-03-10T06:59:27.919Z,998.31
2019-03-10T07:00:27.906Z,998.23
2019-03-10T07:01:27.918Z,998.34
2019-03-10T07:02:27.885Z,998.54
2019-03-10T07:03:27.882Z,998.42
2019-03-10T07:04:27.880Z,998.31
2019-03-10T07:05:27.855Z,998.29
2019-03-10T07:06:27.876Z,998.19
2019-03-10T07:07:27.833Z,998.17
2019-03-10T07:08:27.837Z,998.26
2019-03-10T07:09:27.815Z,998.27
2019-03-10T07:10:27.808Z,998.16
2019-03-10T07:11:27.833Z,998.07
2019-03-10T07:12:27.783Z,998.08
2019-03-10T07:13:27.770Z,998.06
2019-03-10T07:14:27.763Z,997.96
2019-03-10T07:15:27.763Z,997.90
2019-03-10T07:16:27.783Z,997.99
2019-03-10T07:17:27.733Z,997.97
2019-03-10T07:18:27.729Z,998.00
2019-03-10T07:19:27.713Z,997.86
2019-03-10T07:20:27.696Z,997.74
2019-03-10T07:21:27.693Z,997.79
2019-03-10T07:22:27.708Z,997.75
2019-03-10T07:23:27.669Z,997.69
2019-03-10T07:24:27.657Z,997.67
2019-03-10T07:25:27.648Z,997.60
2019-03-10T07:26:27.645Z,997.60
2019-03-10T07:27:27.643Z,997.61
2019-03-10T07:28:27.614Z,997.61
2019-03-10T07:29:27.604Z,997.49
2019-03-10T07:30:27.594Z,997.66
2019-03-10T07:31:27.600Z,997.65
2019-03-10T07:32:27.594Z,997.67
2019-03-10T07:33:27.564Z,997.53
2019-03-10T07:34:27.560Z,997.61
2019-03-10T07:35:27.555Z,997.51
2019-03-10T07:36:27.534Z,997.56
2019-03-10T07:37:27.543Z,997.55
2019-03-10T07:38:27.512Z,997.48
2019-03-10T07:39:27.527Z,997.55
2019-03-10T07:40:27.496Z,997.39
2019-03-10T07:41:27.485Z,997.40
2019-03-10T07:42:27.500Z,997.43
2019-03-10T07:43:27.456Z,997.37
2019-03-10T07:44:27.448Z,997.30
2019-03-10T07:45:27.465Z,997.30
2019-03-10T07:46:27.430Z,997.38
2019-03-10T07:47:27.441Z,997.42
2019-03-10T07:48:27.410Z,997.38
2019-03-10T07:49:27.410Z,997.31
2019-03-10T07:50:27.399Z,997.36
2019-03-10T07:51:27.376Z,997.37
2019-03-10T07:52:27.384Z,997.39
2019-03-10T07:53:27.361Z,997.32
2019-03-10T07:54:27.350Z,997.29
2019-03-10T07:55:27.339Z,997.22
2019-03-10T07:56:27.324Z,997.19
2019-03-10T07:57:27.355Z,997.10
2019-03-10T07:58:27.311Z,997.13
2019-03-10T07:59:27.291Z,997.09
2019-03-10T08:00:27.286Z,997.12
2019-03-10T08:01:27.275Z,997.12
2019-03-10T08:02:27.278Z,997.13
2019-03-10T08:03:27.250Z,997.08
2019-03-10T08:04:27.238Z,997.16
2019-03-10T08:05:27.239Z,997.20
2019-03-10T08:06:27.217Z,997.13
2019-03-10T08:07:27.231Z,997.18
2019-03-10T08:08:27.200Z,997.19
2019-03-10T08:09:27.188Z,997.14
2019-03-10T08:10:27.176Z,997.13
2019-03-10T08:11:27.163Z,997.12
2019-03-10T08:12:27.178Z,997.12
2019-03-10T08:13:27.147Z,997.13
2019-03-10T08:14:27.141Z,997.21
2019-03-10T08:15:27.129Z,997.19
2019-03-10T08:16:27.112Z,997.17
2019-03-10T08:17:27.127Z,997.17
2019-03-10T08:18:27.091Z,997.12
2019-03-10T08:19:27.082Z,997.12
2019-03-10T08:20:27.071Z,997.12
2019-03-10T08:21:27.067Z,997.02
2019-03-10T08:22:27.070Z,997.00
2019-03-10T08:23:27.045Z,997.00
2019-03-10T08:24:27.046Z,997.00
2019-03-10T08:25:27.016Z,996.95
2019-03-10T08:26:27.020Z,996.90
2019-03-10T08:27:27.024Z,996.82
2019-03-10T08:28:26.997Z,996.83
2019-03-10T08:29:26.979Z,996.76
2019-03-10T08:30:26.972Z,996.73
2019-03-10T08:31:26.952Z,996.71
2019-03-10T08:32:26.966Z,996.75
2019-03-10T08:33:26.947Z,996.74
2019-03-10T08:34:26.928Z,996.82
2019-03-10T08:35:26.914Z,996.86
2019-03-10T08:36:26.899Z,996.86
2019-03-10T08:37:26.908Z,996.85
2019-03-10T08:38:26.882Z,996.86
2019-03-10T08:39:26.865Z,996.90
2019-03-10T08:40:26.856Z,996.88
2019-03-10T08:41:26.852Z,996.94
2019-03-10T08:42:26.873Z,997.01
2019-03-10T08:43:26.822Z,996.98
2019-03-10T08:44:26.809Z,996.96
2019-03-10T08:45:26.812Z,997.04
2019-03-10T08:46:26.792Z,996.98
2019-03-10T08:47:26.803Z,996.96
2019-03-10T08:48:26.768Z,997.01
2019-03-10T08:49:26.768Z,997.03
2019-03-10T08:50:26.750Z,997.00
2019-03-10T08:51:26.739Z,997.01
2019-03-10T08:52:26.752Z,996.90
2019-03-10T08:53:26.712Z,997.00
2019-03-10T08:54:26.703Z,996.94
2019-03-10T08:55:26.709Z,996.97
2019-03-10T08:56:26.679Z,996.87
2019-03-10T08:57:26.817Z,996.86
2019-03-10T08:58:26.671Z,996.89
2019-03-10T08:59:26.654Z,996.88
2019-03-10T09:00:26.649Z,996.77
2019-03-10T09:01:26.627Z,996.72
2019-03-10T09:02:26.672Z,996.67
2019-03-10T09:03:26.655Z,996.52
2019-03-10T09:04:26.595Z,996.69
2019-03-10T09:05:26.595Z,996.61
2019-03-10T09:06:26.574Z,996.65
2019-03-10T09:07:26.560Z,996.65
2019-03-10T09:08:26.569Z,996.61
2019-03-10T09:09:26.541Z,996.66
2019-03-10T09:10:26.531Z,996.64
2019-03-10T09:11:26.518Z,996.60
2019-03-10T09:12:26.512Z,996.60
2019-03-10T09:13:26.512Z,996.56
2019-03-10T09:14:26.480Z,996.60
2019-03-10T09:15:26.467Z,996.54
2019-03-10T09:16:26.465Z,996.57
2019-03-10T09:17:26.448Z,996.57
2019-03-10T09:18:26.476Z,996.51
2019-03-10T09:19:26.424Z,996.56
2019-03-10T09:20:26.414Z,996.52
2019-03-10T09:21:26.401Z,996.78
2019-03-10T09:22:26.398Z,996.62
2019-03-10T09:23:26.403Z,996.61
2019-03-10T09:24:26.366Z,996.58
2019-03-10T09:25:26.358Z,996.59
2019-03-10T09:26:26.353Z,996.57
2019-03-10T09:27:28.368Z,996.52
2019-03-10T09:28:26.351Z,996.58
2019-03-10T09:29:26.311Z,996.52
2019-03-10T09:30:26.300Z,996.52
2019-03-10T09:31:26.312Z,996.49
2019-03-10T09:32:26.281Z,996.47
2019-03-10T09:33:26.294Z,996.48
2019-03-10T09:34:26.261Z,996.44
2019-03-10T09:35:26.247Z,996.46
2019-03-10T09:36:26.233Z,996.41
2019-03-10T09:37:26.233Z,996.39
2019-03-10T09:38:26.238Z,996.39
2019-03-10T09:39:26.198Z,996.37
2019-03-10T09:40:26.195Z,996.31
2019-03-10T09:41:26.180Z,996.29
2019-03-10T09:42:26.167Z,996.32
2019-03-10T09:43:26.174Z,996.34
2019-03-10T09:44:26.152Z,996.26
2019-03-10T09:45:26.142Z,996.28
2019-03-10T09:46:26.124Z,996.22
2019-03-10T09:47:26.113Z,996.21
2019-03-10T09:48:26.115Z,996.19
2019-03-10T09:49:26.088Z,996.22
2019-03-10T09:50:26.080Z,996.13
2019-03-10T09:51:26.066Z,996.12
2019-03-10T09:52:26.054Z,996.02
2019-03-10T09:53:26.061Z,996.23
2019-03-10T09:54:26.033Z,996.19
2019-03-10T09:55:26.018Z,996.16
2019-03-10T09:56:26.017Z,996.23
2019-03-10T09:57:25.998Z,996.26
2019-03-10T09:58:26.006Z,996.23
2019-03-10T09:59:25.978Z,996.10
2019-03-10T10:00:25.967Z,996.21
2019-03-10T10:01:25.952Z,996.09
2019-03-10T10:02:25.950Z,996.10
2019-03-10T10:03:25.952Z,996.11
2019-03-10T10:04:25.918Z,996.10
2019-03-10T10:05:25.910Z,996.11
2019-03-10T10:06:25.903Z,996.28
2019-03-10T10:07:25.896Z,996.21
2019-03-10T10:08:25.895Z,996.22
2019-03-10T10:09:25.870Z,996.17
2019-03-10T10:10:25.854Z,996.32
2019-03-10T10:11:25.856Z,996.19
2019-03-10T10:12:25.829Z,996.15
2019-03-10T10:13:25.837Z,996.16
2019-03-10T10:14:25.812Z,996.09
2019-03-10T10:15:25.803Z,996.22
2019-03-10T10:16:25.786Z,996.16
2019-03-10T10:17:25.776Z,996.19
2019-03-10T10:18:25.784Z,996.17
2019-03-10T10:19:25.754Z,995.72
2019-03-10T10:20:26.835Z,995.82
2019-03-10T10:21:25.737Z,995.83
2019-03-10T10:22:25.722Z,996.14
2019-03-10T10:23:25.730Z,995.73
2019-03-10T10:24:25.697Z,996.06
2019-03-10T10:25:25.687Z,995.64
2019-03-10T10:26:25.687Z,995.58
2019-03-10T10:27:25.673Z,995.65
2019-03-10T10:28:25.681Z,995.75
2019-03-10T10:29:25.646Z,995.71
2019-03-10T10:30:25.633Z,995.76
2019-03-10T10:31:25.622Z,995.65
2019-03-10T10:32:25.614Z,995.64
2019-03-10T10:33:25.629Z,995.64
2019-03-10T10:34:25.592Z,995.63
2019-03-10T10:35:25.595Z,995.67
2019-03-10T10:36:25.569Z,995.66
2019-03-10T10:37:25.560Z,995.75
2019-03-10T10:38:25.614Z,995.69
2019-03-10T10:39:25.549Z,995.45
2019-03-10T10:40:25.523Z,995.67
2019-03-10T10:41:25.515Z,995.57
2019-03-10T10:42:25.512Z,995.70
2019-03-10T10:43:25.491Z,995.69
2019-03-10T10:44:25.508Z,995.91
2019-03-10T10:45:25.474Z,995.81
2019-03-10T10:46:25.469Z,996.00
2019-03-10T10:47:25.464Z,995.95
2019-03-10T10:48:25.438Z,995.97
2019-03-10T10:49:25.452Z,996.12
2019-03-10T10:50:25.431Z,995.84
2019-03-10T10:51:25.405Z,996.06
2019-03-10T10:52:25.404Z,995.93
2019-03-10T10:53:25.383Z,995.63
2019-03-10T10:54:25.420Z,995.70
2019-03-10T10:55:25.381Z,995.62
2019-03-10T10:56:25.356Z,995.74
2019-03-10T10:57:25.359Z,995.70
2019-03-10T10:58:25.347Z,995.80
2019-03-10T10:59:25.337Z,995.84
2019-03-10T11:00:25.311Z,995.82
2019-03-10T11:01:25.296Z,995.76
2019-03-10T11:02:25.284Z,995.71
2019-03-10T11:03:25.275Z,995.72
2019-03-10T11:04:25.315Z,996.05
2019-03-10T11:05:25.252Z,995.87
2019-03-10T11:06:25.249Z,995.86
2019-03-10T11:07:25.231Z,995.91
2019-03-10T11:08:25.220Z,995.80
2019-03-10T11:09:25.227Z,995.82
2019-03-10T11:10:25.198Z,995.77
2019-03-10T11:11:25.185Z,995.70
2019-03-10T11:12:25.184Z,995.49
2019-03-10T11:13:25.166Z,995.31
2019-03-10T11:14:25.175Z,995.56
2019-03-10T11:15:25.146Z,995.74
2019-03-10T11:16:25.132Z,995.40
2019-03-10T11:17:25.120Z,995.70
2019-03-10T11:18:25.111Z,995.54
2019-03-10T11:19:25.130Z,995.50
2019-03-10T11:20:25.091Z,995.74
2019-03-10T11:21:25.079Z,995.60
2019-03-10T11:22:25.077Z,995.79
2019-03-10T11:23:25.058Z,995.38
2019-03-10T11:24:25.065Z,995.53
2019-03-10T11:25:25.043Z,995.86
2019-03-10T11:26:25.031Z,995.43
2019-03-10T11:27:25.024Z,995.49
2019-03-10T11:28:25.015Z,995.42
2019-03-10T11:29:25.011Z,995.61
2019-03-10T11:30:24.984Z,995.60
2019-03-10T11:31:24.992Z,995.55
2019-03-10T11:32:24.968Z,995.57
2019-03-10T11:33:27.440Z,995.39
2019-03-10T11:34:24.959Z,995.57
2019-03-10T11:35:24.925Z,995.47
2019-03-10T11:36:24.917Z,995.13
2019-03-10T11:37:24.914Z,995.53
2019-03-10T11:38:24.911Z,995.59
2019-03-10T11:39:24.902Z,995.23
2019-03-10T11:40:24.872Z,995.03
2019-03-10T11:41:33.452Z,995.03
2019-03-10T11:42:25.853Z,995.01
2019-03-10T11:43:24.852Z,994.95
2019-03-10T11:44:24.848Z,995.14
2019-03-10T11:45:24.818Z,994.98
2019-03-10T11:46:24.808Z,995.05
2019-03-10T11:47:24.798Z,995.15
2019-03-10T11:48:24.816Z,995.24
2019-03-10T11:49:24.801Z,995.33
2019-03-10T11:50:24.808Z,995.20
2019-03-10T11:51:24.755Z,995.42
2019-03-10T11:52:24.744Z,995.07
2019-03-10T11:53:25.723Z,995.53
2019-03-10T11:54:24.744Z,995.43
2019-03-10T11:55:24.819Z,995.59
2019-03-10T11:56:24.714Z,995.39
2019-03-10T11:57:24.688Z,995.53
2019-03-10T11:58:24.694Z,995.55
2019-03-10T11:59:24.690Z,995.49
2019-03-10T12:00:24.658Z,995.77
2019-03-10T12:01:24.653Z,995.49
2019-03-10T12:02:24.634Z,995.65
2019-03-10T12:03:24.648Z,995.66
2019-03-10T12:04:24.647Z,995.61
2019-03-10T12:05:24.612Z,995.64
2019-03-10T12:06:24.593Z,995.96
2019-03-10T12:07:24.605Z,995.73
2019-03-10T12:08:24.579Z,995.87
2019-03-10T12:09:24.583Z,995.70
2019-03-10T12:10:24.550Z,995.88
2019-03-10T12:11:24.543Z,995.93
2019-03-10T12:12:24.528Z,995.78
2019-03-10T12:13:24.535Z,995.66
2019-03-10T12:14:24.527Z,995.50
2019-03-10T12:15:24.496Z,995.89
2019-03-10T12:16:24.485Z,995.57